createdAt,value
2023-01-30T00:01:14.127Z,26.6
2023-01-30T00:04:17.298Z,25.6
2023-01-30T00:07:18.062Z,28.1
2023-01-30T00:10:20.192Z,25.5
2023-01-30T00:13:21.972Z,27.9
2023-01-30T00:16:23.998Z,29.5
2023-01-30T00:19:25.881Z,26.3
2023-01-30T00:22:27.849Z,27.6
2023-01-30T00:25:29.889Z,27
2023-01-30T00:28:31.728Z,24.7
2023-01-30T00:31:33.783Z,24.6
2023-01-30T00:34:35.684Z,30.2
2023-01-30T00:37:37.630Z,26.4
2023-01-30T00:40:39.606Z,29.3
2023-01-30T00:43:41.602Z,28.3
2023-01-30T00:46:43.521Z,26.2
2023-01-30T00:49:45.475Z,30.3
2023-01-30T00:52:47.447Z,27.2
2023-01-30T00:55:49.410Z,26.5
2023-01-30T00:58:51.414Z,29.2
2023-01-30T01:01:53.429Z,30.9
2023-01-30T01:04:55.309Z,27.2
2023-01-30T01:07:57.282Z,26.2
2023-01-30T01:10:59.278Z,32.8
2023-01-30T01:14:01.197Z,27.5
2023-01-30T01:17:03.172Z,29
2023-01-30T01:20:05.130Z,27.4
2023-01-30T01:23:07.129Z,25.8
2023-01-30T01:26:09.072Z,29.7
2023-01-30T01:29:11.013Z,28.6
2023-01-30T01:32:13.093Z,30.8
2023-01-30T01:35:15.237Z,30.6
2023-01-30T01:38:16.922Z,30.4
2023-01-30T01:41:18.943Z,25.9
2023-01-30T01:44:20.875Z,30.4
2023-01-30T01:47:22.872Z,32.1
2023-01-30T01:50:24.795Z,31.3
2023-01-30T01:53:26.770Z,34.3
2023-01-30T01:56:28.734Z,30.4
2023-01-30T01:59:30.703Z,31.6
2023-01-30T02:02:32.686Z,28.1
2023-01-30T02:05:34.651Z,28
2023-01-30T02:08:36.671Z,28.5
2023-01-30T02:11:38.595Z,28.7
2023-01-30T02:14:40.565Z,28.4
2023-01-30T02:17:42.569Z,26.4
2023-01-30T02:20:44.526Z,29.7
2023-01-30T02:23:46.664Z,24.6
2023-01-30T02:26:48.478Z,25.2
2023-01-30T02:29:50.418Z,29.8
2023-01-30T02:32:52.441Z,23.8
2023-01-30T02:35:54.332Z,27.4
2023-01-30T02:38:56.294Z,27.3
2023-01-30T02:41:58.504Z,25
2023-01-30T02:45:00.433Z,24.2
2023-01-30T02:48:02.407Z,26.8
2023-01-30T02:51:04.375Z,26.4
2023-01-30T02:54:06.357Z,20.7
2023-01-30T02:57:08.297Z,24.4
2023-01-30T03:00:10.264Z,27.6
2023-01-30T03:03:12.258Z,22.3
2023-01-30T03:06:14.186Z,23.3
2023-01-30T03:09:16.212Z,26.3
2023-01-30T03:12:18.125Z,23.5
2023-01-30T03:15:20.269Z,23.6
2023-01-30T03:18:22.058Z,20.7
2023-01-30T03:21:24.060Z,20.3
2023-01-30T03:24:25.997Z,25.3
2023-01-30T03:27:27.952Z,28.9
2023-01-30T03:30:29.913Z,23.2
2023-01-30T03:33:31.888Z,29
2023-01-30T03:36:33.849Z,25.9
2023-01-30T03:39:35.806Z,24.1
2023-01-30T03:42:37.775Z,25.2
2023-01-30T03:45:39.736Z,31.5
2023-01-30T03:48:41.709Z,25.6
2023-01-30T03:51:43.675Z,25.5
2023-01-30T03:54:45.678Z,32
2023-01-30T03:57:47.615Z,27.9
2023-01-30T04:00:49.614Z,23.9
2023-01-30T04:03:51.559Z,27
2023-01-30T04:06:53.498Z,26.3
2023-01-30T04:09:55.508Z,27.7
2023-01-30T04:12:57.469Z,30.7
2023-01-30T04:15:59.454Z,25.6
2023-01-30T04:19:01.377Z,26.8
2023-01-30T04:22:03.351Z,26.3
2023-01-30T04:25:05.308Z,28.9
2023-01-30T04:28:07.264Z,28.7
2023-01-30T04:31:09.265Z,26
2023-01-30T04:34:11.183Z,26.4
2023-01-30T04:37:13.187Z,27.1
2023-01-30T04:40:15.136Z,26
2023-01-30T04:43:17.126Z,26.8
2023-01-30T04:46:19.099Z,29.6
2023-01-30T04:49:21.054Z,35.6
2023-01-30T04:52:23.024Z,28.9
2023-01-30T04:55:24.994Z,29.1
2023-01-30T04:58:26.951Z,32.4
2023-01-30T05:01:28.886Z,32.9
2023-01-30T05:04:30.860Z,34.6
2023-01-30T05:07:32.820Z,29.6
2023-01-30T05:10:34.787Z,28.7
2023-01-30T05:13:36.786Z,34.6
2023-01-30T05:16:38.728Z,31.5
2023-01-30T05:19:40.700Z,32.9
2023-01-30T05:22:42.650Z,30.6
2023-01-30T05:25:44.631Z,30.5
2023-01-30T05:28:46.794Z,34.5
2023-01-30T05:31:48.594Z,32.2
2023-01-30T05:34:50.544Z,30.7
2023-01-30T05:37:52.498Z,28.7
2023-01-30T05:40:54.481Z,36.3
2023-01-30T05:43:56.412Z,28.3
2023-01-30T05:46:58.550Z,27.5
2023-01-30T05:50:00.453Z,28.9
2023-01-30T05:53:02.395Z,27.9
2023-01-30T05:56:04.370Z,28.7
2023-01-30T05:59:06.331Z,31.5
2023-01-30T06:02:09.217Z,25.3
2023-01-30T06:05:10.287Z,28.4
2023-01-30T06:08:12.280Z,27.7
2023-01-30T06:11:14.247Z,32.1
2023-01-30T06:14:16.213Z,30.4
2023-01-30T06:17:18.177Z,28.6
2023-01-30T06:20:20.114Z,32.3
2023-01-30T06:23:22.096Z,29
2023-01-30T06:26:24.178Z,33.3
2023-01-30T06:29:25.986Z,26.9
2023-01-30T06:32:27.938Z,30.8
2023-01-30T06:35:29.997Z,28.1
2023-01-30T06:38:31.973Z,27.9
2023-01-30T06:41:33.972Z,28.3
2023-01-30T06:44:35.937Z,28.2
2023-01-30T06:47:37.853Z,26.6
2023-01-30T06:50:39.798Z,26.2
2023-01-30T06:53:41.756Z,26.1
2023-01-30T06:56:43.747Z,23.8
2023-01-30T06:59:45.678Z,29.9
2023-01-30T07:02:47.705Z,24.5
2023-01-30T07:05:49.655Z,25
2023-01-30T07:08:51.596Z,29.3
2023-01-30T07:11:53.722Z,24.3
2023-01-30T07:14:55.533Z,24.4
2023-01-30T07:17:57.516Z,27.3
2023-01-30T07:20:59.451Z,26.5
2023-01-30T07:24:01.427Z,24.3
2023-01-30T07:27:03.390Z,25.5
2023-01-30T07:30:05.358Z,26.8
2023-01-30T07:33:07.310Z,25.9
2023-01-30T07:36:09.294Z,23.1
2023-01-30T07:39:11.303Z,24.1
2023-01-30T07:42:13.250Z,22.9
2023-01-30T07:45:15.373Z,27.4
2023-01-30T07:48:17.360Z,22.4
2023-01-30T07:51:19.279Z,19.8
2023-01-30T07:54:21.244Z,19.9
2023-01-30T07:57:23.191Z,18.5
2023-01-30T08:00:25.184Z,24.2
2023-01-30T08:03:27.126Z,20.6
2023-01-30T08:06:29.105Z,21.9
2023-01-30T08:09:31.070Z,22.9
2023-01-30T08:12:32.997Z,22.6
2023-01-30T08:15:34.977Z,23
2023-01-30T08:18:36.951Z,22.6
2023-01-30T08:21:38.903Z,22
2023-01-30T08:24:40.862Z,21.1
2023-01-30T08:27:42.866Z,21.2
2023-01-30T08:30:44.825Z,22.3
2023-01-30T08:33:46.777Z,21.1
2023-01-30T08:36:48.765Z,23
2023-01-30T08:39:50.671Z,21.6
2023-01-30T08:42:52.663Z,21.8
2023-01-30T08:45:54.654Z,16.9
2023-01-30T08:48:56.619Z,18.8
2023-01-30T08:51:58.572Z,18.2
2023-01-30T08:55:00.545Z,21
2023-01-30T08:58:02.551Z,19.3
2023-01-30T09:01:04.623Z,18.9
2023-01-30T09:04:06.489Z,19.2
2023-01-30T09:07:08.460Z,15.9
2023-01-30T09:10:10.441Z,16.1
2023-01-30T09:13:12.431Z,15.8
2023-01-30T09:16:14.514Z,15.5
2023-01-30T09:19:16.404Z,15
2023-01-30T09:22:18.364Z,13.2
2023-01-30T09:25:20.380Z,14
2023-01-30T09:28:22.286Z,13.3
2023-01-30T09:31:24.318Z,13.4
2023-01-30T09:34:26.247Z,12.1
2023-01-30T09:37:28.205Z,11.2
2023-01-30T09:40:30.162Z,11
2023-01-30T09:43:32.135Z,10
2023-01-30T09:46:34.119Z,9.9
2023-01-30T09:49:36.077Z,11.9
2023-01-30T09:52:38.053Z,11.4
2023-01-30T09:55:40.060Z,8.8
2023-01-30T09:58:42.027Z,9.7
2023-01-30T10:01:44.006Z,8.2
2023-01-30T10:04:59.192Z,7.4
2023-01-30T10:07:47.965Z,6.6
2023-01-30T10:10:57.958Z,5.9
2023-01-30T10:13:51.871Z,7
2023-01-30T10:16:53.912Z,7.5
2023-01-30T10:19:55.859Z,5.4
2023-01-30T10:22:57.777Z,6.2
2023-01-30T10:25:59.742Z,6.3
2023-01-30T10:29:07.917Z,4.8
2023-01-30T10:32:03.668Z,5.7
2023-01-30T10:35:06.134Z,6.9
2023-01-30T10:38:07.647Z,4.9
2023-01-30T10:41:09.669Z,4.7
2023-01-30T10:44:11.646Z,4.5
2023-01-30T10:47:13.583Z,5.1
2023-01-30T10:50:16.028Z,4.9
2023-01-30T10:53:17.484Z,4.9
2023-01-30T10:56:19.610Z,3.8
2023-01-30T10:59:21.520Z,4.5
2023-01-30T11:02:23.595Z,3.9
2023-01-30T11:05:25.459Z,4
2023-01-30T11:08:27.426Z,4.7
2023-01-30T11:11:29.712Z,3.4
2023-01-30T11:14:31.663Z,4.6
2023-01-30T11:17:33.600Z,4.6
2023-01-30T11:20:35.541Z,3.7
2023-01-30T11:23:37.511Z,3.6
2023-01-30T11:26:46.998Z,4.8
2023-01-30T11:29:41.431Z,3.5
2023-01-30T11:32:43.410Z,2.6
2023-01-30T11:35:45.386Z,2.3
2023-01-30T11:38:47.402Z,2.5
2023-01-30T11:41:49.341Z,2.5
2023-01-30T11:44:51.309Z,2.8
2023-01-30T11:47:57.487Z,2.5
2023-01-30T11:50:55.230Z,2
2023-01-30T11:53:57.188Z,2.7
2023-01-30T11:56:59.159Z,3
2023-01-30T12:00:01.134Z,2.2
2023-01-30T12:03:03.152Z,2.5
2023-01-30T12:06:05.093Z,1.7
2023-01-30T12:09:07.078Z,2.1
2023-01-30T12:12:09.031Z,3
2023-01-30T12:15:11.116Z,2.3
2023-01-30T12:18:12.989Z,3.6
2023-01-30T12:21:14.962Z,3.6
2023-01-30T12:24:19.763Z,2.6
2023-01-30T12:27:21.752Z,2.8
2023-01-30T12:30:23.663Z,2.3
2023-01-30T12:33:25.676Z,2.4
2023-01-30T12:36:27.574Z,4.1
2023-01-30T12:39:29.882Z,2.8
2023-01-30T12:42:31.833Z,2.3
2023-01-30T12:45:34.146Z,4.1
2023-01-30T12:48:40.753Z,2.5
2023-01-30T12:51:38.099Z,2.6
2023-01-30T12:54:40.051Z,3.8
2023-01-30T12:57:42.014Z,4.4
2023-01-30T13:00:44.016Z,3.5
2023-01-30T13:03:45.989Z,5.4
2023-01-30T13:06:47.931Z,2.9
2023-01-30T13:09:49.893Z,3
2023-01-30T13:12:51.929Z,3.1
2023-01-30T13:15:53.925Z,1.8
2023-01-30T13:18:55.841Z,3.4
2023-01-30T13:22:00.808Z,3.6
2023-01-30T13:25:02.834Z,4.7
2023-01-30T13:28:04.801Z,3.9
2023-01-30T13:31:06.911Z,4.8
2023-01-30T13:34:08.714Z,4.9
2023-01-30T13:37:10.683Z,2.7
2023-01-30T13:40:12.644Z,3.4
2023-01-30T13:43:14.604Z,3.3
2023-01-30T13:46:16.617Z,5.4
2023-01-30T13:49:18.552Z,4.1
2023-01-30T13:52:20.535Z,4.9
2023-01-30T13:55:22.712Z,3.8
2023-01-30T13:58:24.632Z,5.9
2023-01-30T14:01:26.657Z,5.4
2023-01-30T14:04:28.573Z,3.8
2023-01-30T14:07:30.535Z,2.2
2023-01-30T14:10:32.510Z,4.8
2023-01-30T14:13:34.485Z,3
2023-01-30T14:16:36.447Z,5.1
2023-01-30T14:19:38.449Z,3.6
2023-01-30T14:22:40.397Z,3.8
2023-01-30T14:25:42.384Z,6.8
2023-01-30T14:28:44.323Z,3.2
2023-01-30T14:31:46.510Z,3.3
2023-01-30T14:34:48.272Z,3.5
2023-01-30T14:37:50.255Z,4.1
2023-01-30T14:40:52.241Z,5.1
2023-01-30T14:43:54.609Z,3.2
2023-01-30T14:46:56.725Z,3.6
2023-01-30T14:49:58.223Z,4.6
2023-01-30T14:53:00.176Z,4
2023-01-30T14:56:02.175Z,4.6
2023-01-30T14:59:06.112Z,3.7
2023-01-30T15:02:06.141Z,5
2023-01-30T15:05:08.123Z,5.4
2023-01-30T15:08:10.073Z,7.1
2023-01-30T15:11:12.041Z,3.3
2023-01-30T15:14:14.012Z,5.2
2023-01-30T15:17:15.979Z,8.6
2023-01-30T15:20:18.256Z,7.3
2023-01-30T15:23:19.916Z,7.5
2023-01-30T15:26:21.968Z,5.3
2023-01-30T15:29:23.850Z,3.3
2023-01-30T15:32:25.799Z,6.2
2023-01-30T15:35:27.794Z,5.6
2023-01-30T15:38:29.731Z,9.8
2023-01-30T15:41:31.829Z,6.3
2023-01-30T15:44:33.716Z,5.1
2023-01-30T15:47:35.710Z,5.6
2023-01-30T15:50:37.622Z,6.9
2023-01-30T15:53:39.668Z,5
2023-01-30T15:56:41.652Z,7.5
2023-01-30T15:59:43.699Z,6.6
2023-01-30T16:02:45.640Z,5
2023-01-30T16:05:47.931Z,10.6
2023-01-30T16:08:49.770Z,6.7
2023-01-30T16:11:51.772Z,10.6
2023-01-30T16:14:53.775Z,8.2
2023-01-30T16:17:55.696Z,8.4
2023-01-30T16:21:01.893Z,4.4
2023-01-30T16:23:59.613Z,9.4
2023-01-30T16:27:01.583Z,6.1
2023-01-30T16:30:03.736Z,5.1
2023-01-30T16:33:05.535Z,7.6
2023-01-30T16:36:07.461Z,6.3
2023-01-30T16:39:09.447Z,6
2023-01-30T16:42:11.423Z,8.5
2023-01-30T16:45:13.486Z,8.5
2023-01-30T16:48:15.324Z,8.9
2023-01-30T16:51:17.294Z,9.7
2023-01-30T16:54:19.253Z,7.5
2023-01-30T16:57:21.226Z,8.5
2023-01-30T17:00:23.233Z,11.2
2023-01-30T17:03:25.215Z,7.9
2023-01-30T17:06:27.165Z,9.4
2023-01-30T17:09:29.189Z,11.1
2023-01-30T17:12:31.265Z,11.3
2023-01-30T17:15:33.197Z,8.2
2023-01-30T17:18:35.072Z,12.3
2023-01-30T17:21:37.226Z,9.7
2023-01-30T17:24:39.177Z,7.8
2023-01-30T17:27:41.113Z,8.7
2023-01-30T17:30:43.189Z,11.5
2023-01-30T17:33:45.071Z,7
2023-01-30T17:36:47.181Z,7.3
2023-01-30T17:39:49.168Z,9.2
2023-01-30T17:42:51.329Z,10.2
2023-01-30T17:45:53.295Z,8.5
2023-01-30T17:48:55.353Z,10
2023-01-30T17:51:57.302Z,9.2
2023-01-30T17:54:59.277Z,12.9
2023-01-30T17:58:01.259Z,13.3
2023-01-30T18:01:03.356Z,8.6
2023-01-30T18:04:05.344Z,7.2
2023-01-30T18:07:07.239Z,15
2023-01-30T18:10:09.223Z,16.8
2023-01-30T18:13:11.203Z,13.6
2023-01-30T18:16:13.163Z,10.7
2023-01-30T18:19:15.139Z,5.7
2023-01-30T18:22:17.078Z,7.7
2023-01-30T18:25:19.295Z,10.5
2023-01-30T18:28:21.050Z,7.1
2023-01-30T18:31:23.204Z,9.2
2023-01-30T18:34:24.992Z,7.5
2023-01-30T18:37:26.966Z,14.7
2023-01-30T18:40:28.894Z,15.4
2023-01-30T18:43:30.878Z,13.6
2023-01-30T18:46:32.931Z,15.1
2023-01-30T18:49:34.857Z,15.9
2023-01-30T18:52:36.815Z,11.7
2023-01-30T18:55:38.826Z,9.7
2023-01-30T18:58:40.752Z,8.4
2023-01-30T19:01:42.884Z,11.9
2023-01-30T19:04:44.698Z,9.9
2023-01-30T19:07:46.663Z,12.8
2023-01-30T19:10:48.853Z,13.9
2023-01-30T19:13:50.601Z,10.8
2023-01-30T19:16:52.584Z,12.6
2023-01-30T19:19:54.566Z,13.5
2023-01-30T19:22:56.514Z,13.2
2023-01-30T19:25:58.487Z,16.7
2023-01-30T19:29:00.449Z,12.1
2023-01-30T19:32:02.517Z,17.4
2023-01-30T19:35:04.374Z,15.5
2023-01-30T19:38:06.352Z,12.4
2023-01-30T19:41:08.315Z,11
2023-01-30T19:44:10.299Z,18.4
2023-01-30T19:47:12.288Z,15
2023-01-30T19:50:14.503Z,15.6
2023-01-30T19:53:16.265Z,13.1
2023-01-30T19:56:18.221Z,16.5
2023-01-30T19:59:20.195Z,22
2023-01-30T20:02:25.419Z,14.4
2023-01-30T20:05:27.336Z,13.4
2023-01-30T20:08:32.445Z,12.2
2023-01-30T20:11:31.273Z,18.1
2023-01-30T20:14:33.349Z,10.8
2023-01-30T20:17:35.190Z,17.2
2023-01-30T20:20:37.121Z,14.3
2023-01-30T20:23:39.086Z,13.4
2023-01-30T20:26:41.085Z,13.9
2023-01-30T20:29:43.045Z,9
2023-01-30T20:32:44.991Z,10.2
2023-01-30T20:35:47.076Z,12.1
2023-01-30T20:38:49.067Z,11.2
2023-01-30T20:41:50.905Z,15.3
2023-01-30T20:44:52.910Z,11.4
2023-01-30T20:47:54.849Z,13.2
2023-01-30T20:50:56.805Z,15
2023-01-30T20:53:58.801Z,11.3
2023-01-30T20:57:00.756Z,10.8
2023-01-30T21:00:03.208Z,12.5
2023-01-30T21:03:04.694Z,14
2023-01-30T21:06:06.660Z,14.8
2023-01-30T21:09:08.622Z,10.2
2023-01-30T21:12:10.581Z,11.2
2023-01-30T21:15:12.554Z,16.6
2023-01-30T21:18:14.526Z,14.1
2023-01-30T21:21:16.492Z,10
2023-01-30T21:24:18.444Z,9.4
2023-01-30T21:27:20.421Z,8.3
2023-01-30T21:30:22.427Z,16.4
2023-01-30T21:33:24.366Z,19.1
2023-01-30T21:36:26.361Z,13.7
2023-01-30T21:39:28.309Z,19.7
2023-01-30T21:42:30.261Z,26.6
2023-01-30T21:45:32.231Z,15.9
2023-01-30T21:48:34.190Z,14.2
2023-01-30T21:51:36.535Z,13.9
2023-01-30T21:54:38.176Z,13.5
2023-01-30T21:57:40.118Z,10.9
2023-01-30T22:00:42.085Z,15.3
2023-01-30T22:03:44.093Z,10.8
2023-01-30T22:06:46.022Z,9.8
2023-01-30T22:09:48.008Z,8.2
2023-01-30T22:12:49.967Z,8.4
2023-01-30T22:15:51.916Z,15
2023-01-30T22:18:54.509Z,12.7
2023-01-30T22:21:55.863Z,13.2
2023-01-30T22:24:57.853Z,12.9
2023-01-30T22:27:59.782Z,13.8
2023-01-30T22:31:01.847Z,9.9
2023-01-30T22:34:03.740Z,17.2
2023-01-30T22:37:05.662Z,9.9
2023-01-30T22:40:07.629Z,13.3
2023-01-30T22:43:09.580Z,10.8
2023-01-30T22:46:11.543Z,10.4
2023-01-30T22:49:13.597Z,19.4
2023-01-30T22:52:15.489Z,10.5
2023-01-30T22:55:17.677Z,11.8
2023-01-30T22:58:19.388Z,13.1
2023-01-30T23:01:21.362Z,16.5
2023-01-30T23:04:23.355Z,9.3
2023-01-30T23:07:25.330Z,10.4
2023-01-30T23:10:27.290Z,9.8
2023-01-30T23:13:29.231Z,12.5
2023-01-30T23:16:31.226Z,14.6
2023-01-30T23:19:33.150Z,13.8
2023-01-30T23:22:35.549Z,13.7
2023-01-30T23:25:37.090Z,15.4
2023-01-30T23:28:39.075Z,16.3
2023-01-30T23:31:41.078Z,20.7
2023-01-30T23:34:42.998Z,15.8
2023-01-30T23:37:44.954Z,18.8
2023-01-30T23:40:46.930Z,13.3
2023-01-30T23:43:48.903Z,12.4
2023-01-30T23:46:50.855Z,12
2023-01-30T23:49:52.827Z,17.4
2023-01-30T23:52:54.765Z,17.1
2023-01-30T23:55:56.777Z,18
2023-01-30T23:58:58.723Z,21.3
